Time;durP1;ratioP1;P1;durP2;ratioP2;P2;SDS_P1;SDS_P2;PMS_P1;PMS_P2;Temp;Humidity;BMP_temperature;BMP_pressure;BME280_temperature;BME280_humidity;BME280_pressure;Samples;Min_cycle;Max_cycle;Signal;HPM_P1;HPM_P2
2022/08/15 00:01:55;;;;;;;13.88;9.82;;;;;;;;;;5009138;28;20767;-71
2022/08/15 00:04:20;;;;;;;14.60;9.77;;;;;;;;;;5023664;28;20487;-71
2022/08/15 00:06:46;;;;;;;13.13;9.90;;;;;;;;;;5015096;28;20072;-71
2022/08/15 00:09:13;;;;;;;10.73;9.38;;;;;;;;;;5009183;28;20276;-71
2022/08/15 00:11:40;;;;;;;9.98;8.98;;;;;;;;;;5008278;28;20044;-71
2022/08/15 00:14:20;;;;;;;11.30;9.35;;;;;;;;;;5023440;28;20041;-71
2022/08/15 00:16:47;;;;;;;10.60;9.07;;;;;;;;;;5008801;28;20105;-71
2022/08/15 00:19:16;;;;;;;12.32;9.52;;;;;;;;;;5014320;28;22183;-71
2022/08/15 00:21:46;;;;;;;11.23;9.45;;;;;;;;;;5010007;28;20052;-71
2022/08/15 00:24:16;;;;;;;10.23;9.20;;;;;;;;;;5008269;28;20033;-71
2022/08/15 00:26:42;;;;;;;11.15;9.82;;;;;;;;;;5006750;28;20536;-71
2022/08/15 00:29:12;;;;;;;11.50;10.40;;;;;;;;;;5022569;28;20043;-71
2022/08/15 00:31:38;;;;;;;11.80;10.60;;;;;;;;;;5008841;28;20331;-71
2022/08/15 00:34:03;;;;;;;12.18;10.65;;;;;;;;;;5008139;28;20126;-71
2022/08/15 00:36:31;;;;;;;11.27;9.48;;;;;;;;;;5008140;28;20240;-71
2022/08/15 00:38:59;;;;;;;11.15;10.00;;;;;;;;;;5017302;28;20133;-71
2022/08/15 00:41:41;;;;;;;12.02;10.80;;;;;;;;;;5009054;28;20601;-71
2022/08/15 00:44:09;;;;;;;11.13;10.05;;;;;;;;;;5023006;28;20156;-71
2022/08/15 00:46:35;;;;;;;11.50;10.13;;;;;;;;;;5008362;28;20037;-71
2022/08/15 00:49:00;;;;;;;12.43;10.68;;;;;;;;;;5008324;28;20574;-71
2022/08/15 00:51:28;;;;;;;13.13;11.18;;;;;;;;;;5008265;28;20192;-71
2022/08/15 00:53:56;;;;;;;12.90;11.27;;;;;;;;;;5008488;28;20165;-71
2022/08/15 00:56:24;;;;;;;12.35;11.15;;;;;;;;;;5008629;28;20727;-71
2022/08/15 00:58:50;;;;;;;12.38;11.07;;;;;;;;;;5008706;28;20338;-69
2022/08/15 01:01:16;;;;;;;12.38;11.18;;;;;;;;;;5011258;28;21023;-69
2022/08/15 01:03:44;;;;;;;12.77;11.10;;;;;;;;;;5010326;28;20044;-69
2022/08/15 01:06:11;;;;;;;12.43;11.20;;;;;;;;;;5008673;28;20251;-71
2022/08/15 01:08:38;;;;;;;12.25;10.60;;;;;;;;;;5011507;28;20100;-71
2022/08/15 01:11:06;;;;;;;13.27;10.70;;;;;;;;;;5022591;28;20044;-71
2022/08/15 01:13:33;;;;;;;13.00;11.35;;;;;;;;;;5015949;28;20043;-71
2022/08/15 01:15:59;;;;;;;12.40;11.23;;;;;;;;;;5035134;28;20034;-71
2022/08/15 01:18:24;;;;;;;12.50;10.90;;;;;;;;;;5021628;28;20489;-71
2022/08/15 01:20:51;;;;;;;12.35;11.13;;;;;;;;;;5019186;28;20059;-71
2022/08/15 01:23:16;;;;;;;12.68;11.48;;;;;;;;;;5022326;28;20509;-71
2022/08/15 01:25:48;;;;;;;12.27;10.98;;;;;;;;;;5019235;28;20095;-71
2022/08/15 01:28:13;;;;;;;;;;;;;;;;;;5018711;28;20036;-71
2022/08/15 01:30:42;;;;;;;12.87;11.50;;;;;;;;;;5020512;28;20092;-71
2022/08/15 01:33:08;;;;;;;13.57;12.07;;;;;;;;;;5022170;28;20278;-71
2022/08/15 01:35:34;;;;;;;13.07;11.68;;;;;;;;;;5020342;28;20388;-71
2022/08/15 01:38:01;;;;;;;13.02;11.00;;;;;;;;;;5018059;28;20485;-71
2022/08/15 01:40:39;;;;;;;12.20;11.00;;;;;;;;;;5019724;28;20141;-70
2022/08/15 01:43:08;;;;;;;13.82;11.27;;;;;;;;;;5015427;27;20120;-71
2022/08/15 01:45:35;;;;;;;13.32;12.02;;;;;;;;;;5019837;27;20129;-71
2022/08/15 01:48:12;;;;;;;13.75;11.70;;;;;;;;;;5018117;27;20230;-71
2022/08/15 01:50:44;;;;;;;12.98;11.70;;;;;;;;;;5018464;27;21879;-70
2022/08/15 01:53:20;;;;;;;13.00;11.70;;;;;;;;;;5019986;27;20041;-72
2022/08/15 01:55:48;;;;;;;13.48;12.07;;;;;;;;;;5018821;27;20544;-71
2022/08/15 01:58:13;;;;;;;14.40;12.75;;;;;;;;;;5011618;28;20127;-71
2022/08/15 02:00:48;;;;;;;13.57;12.18;;;;;;;;;;5010062;27;20047;-71
2022/08/15 02:03:13;;;;;;;14.93;12.13;;;;;;;;;;5020164;28;20428;-71
2022/08/15 02:05:38;;;;;;;13.85;12.55;;;;;;;;;;5021699;28;20456;-71
2022/08/15 02:08:06;;;;;;;12.30;11.10;;;;;;;;;;5005906;28;20605;-71
2022/08/15 02:10:33;;;;;;;14.70;13.02;;;;;;;;;;5018840;28;20451;-71
2022/08/15 02:12:59;;;;;;;14.73;13.23;;;;;;;;;;5019632;28;20206;-71
2022/08/15 02:15:25;;;;;;;14.48;13.02;;;;;;;;;;5021609;28;20029;-70
2022/08/15 02:17:50;;;;;;;15.25;13.65;;;;;;;;;;5023699;28;20054;-72
2022/08/15 02:20:16;;;;;;;14.70;13.30;;;;;;;;;;5034531;28;20527;-70
2022/08/15 02:22:41;;;;;;;15.40;13.90;;;;;;;;;;5018429;28;20144;-71
2022/08/15 02:25:07;;;;;;;15.85;14.13;;;;;;;;;;5020881;28;20043;-69
2022/08/15 02:27:37;;;;;;;17.58;15.70;;;;;;;;;;5017734;28;20470;-69
2022/08/15 02:30:06;;;;;;;23.63;19.85;;;;;;;;;;5019242;28;20420;-69
2022/08/15 02:32:31;;;;;;;21.15;17.88;;;;;;;;;;5019470;28;20059;-70
2022/08/15 02:34:59;;;;;;;21.27;17.88;;;;;;;;;;5018343;28;20044;-70
2022/08/15 02:37:24;;;;;;;20.70;16.90;;;;;;;;;;5005346;28;20033;-70
2022/08/15 02:39:51;;;;;;;20.13;15.48;;;;;;;;;;5017173;28;20032;-70
2022/08/15 02:42:17;;;;;;;23.48;18.58;;;;;;;;;;5023685;28;20305;-70
2022/08/15 02:44:50;;;;;;;26.55;23.95;;;;;;;;;;5018371;28;20126;-70
2022/08/15 02:47:15;;;;;;;23.95;21.50;;;;;;;;;;5020077;28;20036;-70
2022/08/15 02:49:44;;;;;;;15.27;13.80;;;;;;;;;;5021958;28;20746;-70
2022/08/15 02:52:12;;;;;;;13.25;11.95;;;;;;;;;;5036474;28;20584;-70
2022/08/15 02:54:38;;;;;;;13.60;11.50;;;;;;;;;;5021675;28;20064;-70
2022/08/15 02:57:04;;;;;;;12.52;11.30;;;;;;;;;;5021858;28;20091;-69
2022/08/15 02:59:30;;;;;;;12.80;10.80;;;;;;;;;;5022667;28;20025;-69
2022/08/15 03:01:57;;;;;;;11.48;10.23;;;;;;;;;;5022878;28;20140;-70
2022/08/15 03:04:23;;;;;;;11.35;10.25;;;;;;;;;;5022953;28;20033;-70
2022/08/15 03:06:49;;;;;;;11.55;10.35;;;;;;;;;;5037110;28;20429;-70
2022/08/15 03:09:15;;;;;;;12.50;11.20;;;;;;;;;;5022049;28;20174;-70
2022/08/15 03:11:42;;;;;;;13.23;11.80;;;;;;;;;;5037093;28;20041;-70
2022/08/15 03:14:08;;;;;;;11.90;10.70;;;;;;;;;;5035254;28;20464;-70
2022/08/15 03:16:35;;;;;;;11.55;10.18;;;;;;;;;;5010546;28;20060;-69
2022/08/15 03:19:01;;;;;;;11.13;10.13;;;;;;;;;;5021041;28;20127;-72
2022/08/15 03:21:26;;;;;;;11.18;9.55;;;;;;;;;;5021907;28;20613;-72
2022/08/15 03:23:53;;;;;;;10.52;9.40;;;;;;;;;;5024962;28;20474;-70
2022/08/15 03:26:21;;;;;;;10.45;9.43;;;;;;;;;;5037353;28;20493;-70
2022/08/15 03:28:46;;;;;;;13.85;9.80;;;;;;;;;;5023771;28;20029;-70
2022/08/15 03:31:12;;;;;;;13.23;10.80;;;;;;;;;;5020241;28;20045;-69
2022/08/15 03:33:43;;;;;;;11.85;10.65;;;;;;;;;;5022677;28;20048;-70
2022/08/15 03:36:09;;;;;;;12.75;11.02;;;;;;;;;;5022197;28;22413;-70
2022/08/15 03:38:34;;;;;;;12.98;11.10;;;;;;;;;;5019481;28;20061;-70
2022/08/15 03:41:00;;;;;;;13.02;11.43;;;;;;;;;;5022040;28;20249;-70
2022/08/15 03:43:29;;;;;;;14.07;12.02;;;;;;;;;;5025831;28;20452;-71
2022/08/15 03:46:00;;;;;;;13.18;11.70;;;;;;;;;;5036000;28;20759;-70
2022/08/15 03:48:30;;;;;;;17.97;12.57;;;;;;;;;;5019537;28;20036;-70
2022/08/15 03:50:57;;;;;;;13.97;12.47;;;;;;;;;;5024019;28;20048;-70
2022/08/15 03:53:22;;;;;;;14.75;12.75;;;;;;;;;;5026928;28;20197;-70
2022/08/15 03:55:48;;;;;;;18.10;13.10;;;;;;;;;;5025422;28;20676;-70
2022/08/15 03:58:17;;;;;;;13.85;12.45;;;;;;;;;;5026649;28;20335;-70
2022/08/15 04:00:47;;;;;;;16.63;14.30;;;;;;;;;;5023152;28;20405;-70
2022/08/15 04:03:17;;;;;;;15.70;14.10;;;;;;;;;;5025134;28;20051;-70
2022/08/15 04:05:49;;;;;;;14.88;13.38;;;;;;;;;;5019643;28;20056;-71
2022/08/15 04:08:15;;;;;;;14.80;13.38;;;;;;;;;;5025688;28;20144;-70
2022/08/15 04:10:41;;;;;;;15.13;13.55;;;;;;;;;;5021490;28;20338;-70
2022/08/15 04:13:07;;;;;;;16.23;14.63;;;;;;;;;;5021585;28;20036;-70
2022/08/15 04:15:33;;;;;;;15.93;14.43;;;;;;;;;;5021382;28;20151;-70
2022/08/15 04:18:01;;;;;;;19.42;17.35;;;;;;;;;;5019915;28;20032;-70
2022/08/15 04:20:28;;;;;;;25.10;21.20;;;;;;;;;;5035305;28;20091;-71
2022/08/15 04:22:53;;;;;;;25.20;22.80;;;;;;;;;;5019024;28;20029;-71
2022/08/15 04:25:27;;;;;;;24.05;21.55;;;;;;;;;;5019689;28;20521;-71
2022/08/15 04:27:59;;;;;;;24.98;21.48;;;;;;;;;;5020059;28;20576;-71
2022/08/15 04:30:29;;;;;;;19.52;17.35;;;;;;;;;;5020777;28;20072;-71
2022/08/15 04:32:56;;;;;;;20.85;17.42;;;;;;;;;;5020138;28;20484;-71
2022/08/15 04:35:21;;;;;;;21.70;18.42;;;;;;;;;;5018853;28;20311;-70
2022/08/15 04:37:47;;;;;;;26.13;23.40;;;;;;;;;;5018886;28;20540;-70
2022/08/15 04:40:14;;;;;;;25.98;23.42;;;;;;;;;;5005589;28;20271;-71
2022/08/15 04:42:50;;;;;;;27.70;24.83;;;;;;;;;;5022670;28;20037;-74
2022/08/15 04:45:15;;;;;;;28.95;25.92;;;;;;;;;;5004089;28;20197;-70
2022/08/15 04:47:43;;;;;;;31.17;27.95;;;;;;;;;;5014769;28;20312;-70
2022/08/15 04:50:11;;;;;;;23.77;21.48;;;;;;;;;;5032837;28;20048;-70
2022/08/15 04:52:47;;;;;;;22.60;19.77;;;;;;;;;;5019116;28;20032;-70
2022/08/15 04:55:13;;;;;;;29.58;22.35;;;;;;;;;;5020516;28;20528;-70
2022/08/15 04:57:39;;;;;;;24.70;18.05;;;;;;;;;;5019381;28;20159;-71
2022/08/15 05:00:07;;;;;;;24.38;17.95;;;;;;;;;;5018322;28;20045;-70
2022/08/15 05:02:33;;;;;;;24.17;20.83;;;;;;;;;;5019129;28;20039;-71
2022/08/15 05:04:58;;;;;;;16.90;15.10;;;;;;;;;;5034299;28;20383;-70
2022/08/15 05:07:24;;;;;;;17.30;15.10;;;;;;;;;;5019860;28;20040;-69
2022/08/15 05:09:49;;;;;;;16.02;12.20;;;;;;;;;;5019266;28;20143;-69
2022/08/15 05:12:15;;;;;;;13.65;12.35;;;;;;;;;;5021593;28;20398;-70
2022/08/15 05:14:40;;;;;;;14.63;13.00;;;;;;;;;;5022427;28;20119;-70
2022/08/15 05:17:06;;;;;;;16.10;12.98;;;;;;;;;;5020651;28;20323;-71
2022/08/15 05:19:34;;;;;;;19.10;12.15;;;;;;;;;;5019862;28;20527;-70
2022/08/15 05:21:59;;;;;;;16.50;11.52;;;;;;;;;;5023746;28;20029;-71
2022/08/15 05:24:25;;;;;;;14.63;11.15;;;;;;;;;;5036158;28;20177;-72
2022/08/15 05:26:52;;;;;;;13.80;9.80;;;;;;;;;;5034690;28;21860;-69
2022/08/15 05:29:18;;;;;;;12.32;7.90;;;;;;;;;;5024460;28;20033;-70
2022/08/15 05:31:43;;;;;;;13.13;8.05;;;;;;;;;;5017854;28;20416;-70
2022/08/15 05:34:08;;;;;;;9.15;6.88;;;;;;;;;;5015801;28;20056;-70
2022/08/15 05:36:37;;;;;;;11.57;6.80;;;;;;;;;;5018294;28;20498;-70
2022/08/15 05:39:11;;;;;;;12.02;6.28;;;;;;;;;;5020007;28;20532;-71
2022/08/15 05:41:44;;;;;;;12.00;6.40;;;;;;;;;;5015402;28;20066;-71
2022/08/15 05:44:16;;;;;;;8.93;5.53;;;;;;;;;;5017918;28;20071;-71
2022/08/15 05:46:47;;;;;;;12.38;5.13;;;;;;;;;;5018055;28;20147;-71
2022/08/15 05:49:31;;;;;;;11.02;5.40;;;;;;;;;;5025181;28;20202;-71
2022/08/15 05:52:03;;;;;;;10.27;5.45;;;;;;;;;;5018484;27;20195;-71
2022/08/15 05:54:47;;;;;;;9.63;5.68;;;;;;;;;;5012757;27;20424;-71
2022/08/15 05:57:17;;;;;;;11.43;5.57;;;;;;;;;;5016057;28;20198;-70
2022/08/15 05:59:45;;;;;;;13.27;5.30;;;;;;;;;;5021596;28;20257;-70
2022/08/15 06:02:16;;;;;;;12.75;5.78;;;;;;;;;;5019611;28;20044;-70
2022/08/15 06:04:49;;;;;;;10.47;5.53;;;;;;;;;;5019694;28;20512;-70
2022/08/15 06:07:15;;;;;;;9.93;5.10;;;;;;;;;;5018603;28;20651;-71
2022/08/15 06:09:44;;;;;;;11.90;4.90;;;;;;;;;;5017415;28;20028;-70
2022/08/15 06:12:13;;;;;;;8.68;4.00;;;;;;;;;;5031891;28;20217;-70
2022/08/15 06:14:40;;;;;;;9.52;4.45;;;;;;;;;;5018577;28;20407;-70
2022/08/15 06:17:11;;;;;;;13.70;4.70;;;;;;;;;;5018562;28;20037;-70
2022/08/15 06:19:39;;;;;;;10.52;4.70;;;;;;;;;;5016204;28;20040;-70
2022/08/15 06:22:10;;;;;;;8.73;4.15;;;;;;;;;;5033248;28;20037;-70
2022/08/15 06:24:56;;;;;;;8.07;3.60;;;;;;;;;;5032417;28;20035;-70
2022/08/15 06:27:28;;;;;;;14.90;4.53;;;;;;;;;;5020101;28;20559;-70
2022/08/15 06:30:07;;;;;;;13.68;3.70;;;;;;;;;;5018470;28;20806;-70
2022/08/15 06:32:42;;;;;;;6.22;3.00;;;;;;;;;;5018158;28;20787;-70
2022/08/15 06:35:15;;;;;;;7.97;3.42;;;;;;;;;;5019272;28;20460;-69
2022/08/15 06:37:42;;;;;;;8.35;3.15;;;;;;;;;;5017708;28;20062;-70
2022/08/15 06:40:20;;;;;;;5.93;2.63;;;;;;;;;;5020556;28;20946;-70
2022/08/15 06:42:46;;;;;;;5.50;3.20;;;;;;;;;;5019444;28;20067;-70
2022/08/15 06:45:16;;;;;;;6.13;2.80;;;;;;;;;;5034752;28;20060;-71
2022/08/15 06:47:42;;;;;;;8.90;2.80;;;;;;;;;;5018106;28;20040;-70
2022/08/15 06:50:11;;;;;;;9.80;3.17;;;;;;;;;;5019833;28;20167;-70
2022/08/15 06:52:37;;;;;;;6.72;3.40;;;;;;;;;;5017984;28;20021;-70
2022/08/15 06:55:03;;;;;;;10.10;3.50;;;;;;;;;;5019876;28;20445;-70
2022/08/15 06:57:47;;;;;;;9.10;3.35;;;;;;;;;;5019324;28;20505;-70
2022/08/15 07:00:19;;;;;;;12.65;3.55;;;;;;;;;;5032082;28;20036;-70
2022/08/15 07:03:03;;;;;;;9.35;3.50;;;;;;;;;;5018506;28;20040;-71
2022/08/15 07:05:34;;;;;;;7.85;3.35;;;;;;;;;;5005272;28;20097;-71
2022/08/15 07:08:02;;;;;;;9.25;3.33;;;;;;;;;;5017504;28;20057;-70
2022/08/15 07:10:35;;;;;;;10.88;4.10;;;;;;;;;;5016758;28;20556;-70
2022/08/15 07:13:06;;;;;;;7.68;3.00;;;;;;;;;;5025745;28;20047;-72
2022/08/15 07:15:43;;;;;;;7.75;3.33;;;;;;;;;;5023857;28;20287;-71
2022/08/15 07:18:14;;;;;;;7.47;3.47;;;;;;;;;;5032518;28;20569;-70
2022/08/15 07:20:39;;;;;;;11.45;3.00;;;;;;;;;;5017135;28;20037;-70
2022/08/15 07:23:19;;;;;;;7.43;3.00;;;;;;;;;;5021379;28;20060;-72
2022/08/15 07:25:46;;;;;;;6.18;3.50;;;;;;;;;;5020831;28;20544;-71
2022/08/15 07:28:16;;;;;;;10.45;3.33;;;;;;;;;;5019864;28;20512;-71
2022/08/15 07:30:44;;;;;;;6.90;3.47;;;;;;;;;;5047864;28;20677;-70
2022/08/15 07:33:10;;;;;;;10.40;3.30;;;;;;;;;;5017110;28;20666;-71
2022/08/15 07:35:38;;;;;;;9.40;3.63;;;;;;;;;;5021991;28;21797;-70
2022/08/15 07:38:09;;;;;;;7.35;3.65;;;;;;;;;;5037640;28;20054;-70
2022/08/15 07:40:42;;;;;;;7.78;3.50;;;;;;;;;;5022072;28;20033;-71
2022/08/15 07:43:28;;;;;;;8.55;3.60;;;;;;;;;;5020272;28;20259;-70
2022/08/15 07:46:13;;;;;;;10.43;3.47;;;;;;;;;;5025230;28;21738;-70
2022/08/15 07:48:39;;;;;;;8.35;3.55;;;;;;;;;;5022620;28;20087;-71
2022/08/15 07:51:07;;;;;;;8.82;3.58;;;;;;;;;;5020406;28;20454;-70
2022/08/15 07:53:36;;;;;;;11.05;3.88;;;;;;;;;;5033445;28;20437;-70
2022/08/15 07:56:04;;;;;;;9.82;4.03;;;;;;;;;;5020088;28;20582;-70
2022/08/15 07:58:33;;;;;;;6.25;3.25;;;;;;;;;;5038282;28;20190;-70
2022/08/15 08:01:23;;;;;;;10.00;3.20;;;;;;;;;;5022497;28;20106;-71
2022/08/15 08:03:55;;;;;;;5.65;2.78;;;;;;;;;;5024166;28;20139;-70
2022/08/15 08:06:33;;;;;;;6.65;3.15;;;;;;;;;;5022718;28;20566;-72
2022/08/15 08:09:07;;;;;;;10.80;3.63;;;;;;;;;;5012811;28;20096;-71
2022/08/15 08:11:54;;;;;;;8.90;3.28;;;;;;;;;;5013786;28;20063;-70
2022/08/15 08:14:38;;;;;;;5.18;3.17;;;;;;;;;;5018051;28;20665;-69
2022/08/15 08:17:15;;;;;;;6.00;3.00;;;;;;;;;;5014641;28;20069;-71
2022/08/15 08:19:51;;;;;;;7.30;3.38;;;;;;;;;;5010604;28;20464;-70
2022/08/15 08:22:18;;;;;;;6.00;3.60;;;;;;;;;;5013740;28;20116;-70
2022/08/15 08:24:58;;;;;;;7.78;3.33;;;;;;;;;;5011955;28;20051;-72
2022/08/15 08:27:35;;;;;;;7.03;3.40;;;;;;;;;;5016960;28;20118;-70
2022/08/15 08:30:04;;;;;;;7.95;3.10;;;;;;;;;;5014710;28;20040;-71
2022/08/15 08:32:30;;;;;;;7.95;3.13;;;;;;;;;;5014904;28;22169;-68
2022/08/15 08:35:14;;;;;;;9.63;3.20;;;;;;;;;;5013328;28;20106;-69
2022/08/15 08:37:41;;;;;;;6.97;3.15;;;;;;;;;;5013085;28;20984;-69
2022/08/15 08:43:09;;;;;;;6.35;3.13;;;;;;;;;;5009006;28;20136;-69
2022/08/15 08:45:45;;;;;;;7.22;3.40;;;;;;;;;;5009349;28;20751;-69
2022/08/15 08:48:24;;;;;;;6.43;3.60;;;;;;;;;;5009939;28;20065;-69
2022/08/15 08:51:05;;;;;;;8.93;3.45;;;;;;;;;;5010950;28;20073;-70
2022/08/15 08:53:30;;;;;;;8.00;3.75;;;;;;;;;;5010679;28;20393;-69
2022/08/15 08:55:58;;;;;;;6.10;3.60;;;;;;;;;;5025951;28;20096;-69
2022/08/15 08:58:30;;;;;;;9.75;3.85;;;;;;;;;;5014423;28;20040;-69
2022/08/15 09:00:57;;;;;;;9.30;3.70;;;;;;;;;;5010005;28;20045;-70
2022/08/15 09:03:29;;;;;;;8.60;4.07;;;;;;;;;;5025194;28;20040;-69
2022/08/15 09:05:55;;;;;;;13.15;3.83;;;;;;;;;;5022884;28;20603;-69
2022/08/15 09:08:32;;;;;;;9.10;4.20;;;;;;;;;;5010097;28;20572;-68
2022/08/15 09:11:04;;;;;;;7.88;3.67;;;;;;;;;;5023053;28;20436;-69
2022/08/15 09:13:40;;;;;;;7.35;3.95;;;;;;;;;;4998423;28;20118;-68
2022/08/15 09:16:23;;;;;;;8.07;4.75;;;;;;;;;;5009799;28;20032;-69
2022/08/15 09:19:00;;;;;;;7.32;4.68;;;;;;;;;;5017531;28;21859;-70
2022/08/15 09:21:25;;;;;;;7.82;4.80;;;;;;;;;;5023182;28;20098;-69
2022/08/15 09:23:50;;;;;;;9.52;4.68;;;;;;;;;;5024585;28;20418;-69
2022/08/15 09:26:21;;;;;;;4.95;3.78;;;;;;;;;;5010278;28;20172;-69
2022/08/15 09:29:01;;;;;;;6.10;3.50;;;;;;;;;;5012776;28;20056;-69
2022/08/15 09:31:30;;;;;;;5.63;3.30;;;;;;;;;;5011274;28;20040;-69
2022/08/15 09:34:14;;;;;;;9.90;3.80;;;;;;;;;;5010691;28;20080;-70
2022/08/15 09:37:00;;;;;;;5.93;3.75;;;;;;;;;;5012300;28;20033;-69
2022/08/15 09:39:43;;;;;;;4.47;3.70;;;;;;;;;;5015608;28;20039;-69
2022/08/15 09:42:08;;;;;;;5.55;3.80;;;;;;;;;;5025522;28;20041;-68
2022/08/15 09:44:36;;;;;;;6.00;3.80;;;;;;;;;;5022377;28;20296;-68
2022/08/15 09:47:31;;;;;;;8.75;4.47;;;;;;;;;;5007154;28;20041;-70
2022/08/15 09:49:56;;;;;;;7.13;4.72;;;;;;;;;;5008921;28;20032;-69
2022/08/15 09:52:39;;;;;;;8.93;4.50;;;;;;;;;;5023908;28;20037;-69
2022/08/15 09:55:27;;;;;;;14.45;4.80;;;;;;;;;;5008959;28;20494;-69
2022/08/15 09:57:56;;;;;;;10.90;5.20;;;;;;;;;;5007950;28;20618;-68
2022/08/15 10:00:30;;;;;;;12.85;5.10;;;;;;;;;;5011810;28;20085;-68
2022/08/15 10:02:59;;;;;;;11.25;5.20;;;;;;;;;;5006899;28;20422;-68
2022/08/15 10:05:58;;;;;;;13.93;5.47;;;;;;;;;;5038786;28;20183;-67
2022/08/15 10:08:44;;;;;;;15.98;5.32;;;;;;;;;;5010498;28;20040;-68
2022/08/15 10:11:11;;;;;;;16.13;6.25;;;;;;;;;;5009625;28;21215;-69
2022/08/15 10:13:39;;;;;;;15.13;6.82;;;;;;;;;;5022143;28;20044;-68
2022/08/15 10:16:27;;;;;;;14.55;7.72;;;;;;;;;;5011450;28;20068;-68
2022/08/15 10:18:55;;;;;;;17.20;8.57;;;;;;;;;;5010058;28;20040;-68
2022/08/15 10:21:24;;;;;;;17.45;8.40;;;;;;;;;;5007366;28;20658;-68
2022/08/15 10:23:50;;;;;;;17.40;9.02;;;;;;;;;;5009932;28;20037;-70
2022/08/15 10:26:21;;;;;;;15.65;8.73;;;;;;;;;;5023884;28;20087;-69
2022/08/15 10:28:59;;;;;;;14.23;9.50;;;;;;;;;;5009604;28;20553;-69
2022/08/15 10:31:27;;;;;;;15.63;8.48;;;;;;;;;;5007553;28;20056;-69
2022/08/15 10:33:56;;;;;;;13.93;9.00;;;;;;;;;;5007996;28;20095;-68
2022/08/15 10:36:24;;;;;;;15.00;8.80;;;;;;;;;;5024863;28;20886;-69
2022/08/15 10:38:54;;;;;;;17.92;8.90;;;;;;;;;;5010826;28;20028;-70
2022/08/15 10:41:39;;;;;;;17.27;9.30;;;;;;;;;;5007142;28;20107;-69
2022/08/15 10:44:30;;;;;;;17.48;8.68;;;;;;;;;;5007632;28;20485;-68
2022/08/15 10:47:04;;;;;;;18.02;8.88;;;;;;;;;;5022156;28;20541;-70
2022/08/15 10:49:42;;;;;;;15.77;8.50;;;;;;;;;;5006225;28;20269;-69
2022/08/15 10:52:13;;;;;;;17.23;7.72;;;;;;;;;;5007619;28;20047;-68
2022/08/15 10:54:42;;;;;;;12.45;7.32;;;;;;;;;;5006647;28;20041;-69
2022/08/15 10:57:08;;;;;;;13.48;6.82;;;;;;;;;;5022019;28;20674;-69
2022/08/15 10:59:56;;;;;;;9.93;6.38;;;;;;;;;;5006440;28;20526;-70
2022/08/15 11:02:27;;;;;;;18.00;5.63;;;;;;;;;;5006231;28;20040;-70
2022/08/15 11:04:58;;;;;;;13.07;6.28;;;;;;;;;;5021343;28;20110;-68
2022/08/15 11:07:29;;;;;;;8.88;5.60;;;;;;;;;;5007074;28;20044;-68
2022/08/15 11:09:56;;;;;;;10.32;5.97;;;;;;;;;;5010192;28;20033;-68
2022/08/15 11:12:22;;;;;;;11.55;5.60;;;;;;;;;;5025577;28;20045;-68
2022/08/15 11:14:51;;;;;;;9.63;5.10;;;;;;;;;;5011135;28;20040;-69
2022/08/15 11:17:22;;;;;;;12.48;5.60;;;;;;;;;;5010622;28;20331;-68
2022/08/15 11:19:49;;;;;;;11.13;5.00;;;;;;;;;;5012189;28;20256;-67
2022/08/15 11:22:26;;;;;;;14.45;5.88;;;;;;;;;;5015994;28;20230;-69
2022/08/15 11:25:00;;;;;;;11.85;5.22;;;;;;;;;;5015273;28;20368;-68
2022/08/15 11:27:26;;;;;;;15.15;5.45;;;;;;;;;;5025300;28;20047;-68
2022/08/15 11:29:53;;;;;;;9.65;5.20;;;;;;;;;;5009411;28;20209;-71
2022/08/15 11:32:37;;;;;;;11.48;5.18;;;;;;;;;;5009171;28;20045;-67
2022/08/15 11:35:18;;;;;;;14.45;5.65;;;;;;;;;;5012514;28;20037;-69
2022/08/15 11:37:44;;;;;;;12.43;7.15;;;;;;;;;;5011032;28;20420;-71
2022/08/15 11:40:38;;;;;;;15.25;7.10;;;;;;;;;;5024920;28;20135;-67
2022/08/15 11:43:07;;;;;;;12.55;9.20;;;;;;;;;;5003003;28;20395;-68
2022/08/15 11:45:34;;;;;;;14.82;10.00;;;;;;;;;;5010881;28;20045;-68
2022/08/15 11:48:00;;;;;;;15.20;11.63;;;;;;;;;;5011015;28;20048;-67
2022/08/15 11:50:28;;;;;;;15.38;11.13;;;;;;;;;;5010478;28;20064;-69
2022/08/15 11:52:55;;;;;;;17.52;11.43;;;;;;;;;;5010482;28;20734;-67
2022/08/15 11:55:26;;;;;;;17.05;11.63;;;;;;;;;;5015063;28;21780;-68
2022/08/15 11:58:00;;;;;;;17.23;11.63;;;;;;;;;;5010324;28;20569;-68
2022/08/15 12:00:48;;;;;;;15.65;11.32;;;;;;;;;;5024379;28;20055;-68
2022/08/15 12:03:22;;;;;;;16.75;12.13;;;;;;;;;;5012758;28;20283;-68
2022/08/15 12:05:48;;;;;;;15.18;12.35;;;;;;;;;;5024747;28;20041;-68
2022/08/15 12:08:19;;;;;;;17.08;11.02;;;;;;;;;;5008813;28;20553;-68
2022/08/15 12:10:46;;;;;;;16.60;10.40;;;;;;;;;;5010649;28;20675;-69
2022/08/15 12:13:14;;;;;;;19.33;11.15;;;;;;;;;;5010404;28;20036;-68
2022/08/15 12:15:41;;;;;;;20.00;10.80;;;;;;;;;;5010101;28;20037;-68
2022/08/15 12:18:08;;;;;;;14.80;10.68;;;;;;;;;;5008737;28;20285;-68
2022/08/15 12:20:41;;;;;;;16.00;10.60;;;;;;;;;;5008990;28;20490;-68
2022/08/15 12:23:22;;;;;;;21.15;11.68;;;;;;;;;;5025122;28;20524;-68
2022/08/15 12:25:51;;;;;;;19.35;11.40;;;;;;;;;;5023890;28;20301;-67
2022/08/15 12:28:18;;;;;;;13.93;10.27;;;;;;;;;;5023650;28;20104;-68
2022/08/15 12:30:45;;;;;;;17.63;11.15;;;;;;;;;;5009007;28;20486;-69
2022/08/15 12:33:11;;;;;;;17.25;11.00;;;;;;;;;;5006791;28;20490;-69
2022/08/15 12:35:36;;;;;;;15.95;11.38;;;;;;;;;;5025028;28;20064;-68
2022/08/15 12:38:02;;;;;;;14.70;11.80;;;;;;;;;;5003039;28;20131;-68
2022/08/15 12:40:27;;;;;;;17.88;11.50;;;;;;;;;;5011092;28;20025;-69
2022/08/15 12:42:52;;;;;;;17.15;11.13;;;;;;;;;;5005277;28;20580;-68
2022/08/15 12:45:18;;;;;;;23.65;12.65;;;;;;;;;;5007047;28;20863;-68
2022/08/15 12:47:44;;;;;;;19.17;12.00;;;;;;;;;;5009865;28;20033;-69
2022/08/15 12:50:10;;;;;;;15.52;11.30;;;;;;;;;;5007269;28;20064;-68
2022/08/15 12:52:36;;;;;;;18.48;12.43;;;;;;;;;;5021457;28;20505;-67
2022/08/15 12:55:01;;;;;;;17.52;11.48;;;;;;;;;;5007387;28;20853;-68
2022/08/15 12:57:28;;;;;;;20.30;11.93;;;;;;;;;;5006044;28;21637;-68
2022/08/15 12:59:53;;;;;;;15.98;11.95;;;;;;;;;;5006634;28;20036;-67
2022/08/15 13:02:19;;;;;;;15.25;11.52;;;;;;;;;;5006114;28;20380;-68
2022/08/15 13:04:49;;;;;;;20.33;11.90;;;;;;;;;;5014106;28;20144;-68
2022/08/15 13:07:16;;;;;;;14.82;10.77;;;;;;;;;;5011338;28;20328;-67
2022/08/15 13:09:41;;;;;;;13.55;8.95;;;;;;;;;;5011186;28;20596;-68
2022/08/15 13:12:07;;;;;;;14.07;10.45;;;;;;;;;;5007146;28;22024;-67
2022/08/15 13:14:32;;;;;;;11.02;9.50;;;;;;;;;;5004173;28;20432;-68
2022/08/15 13:16:59;;;;;;;21.50;10.20;;;;;;;;;;5010499;28;20420;-68
2022/08/15 13:19:29;;;;;;;12.60;9.70;;;;;;;;;;5017943;28;20129;-68
2022/08/15 13:24:39;;;;;;;15.60;9.32;;;;;;;;;;5006455;28;20144;-68
2022/08/15 13:27:08;;;;;;;15.13;8.95;;;;;;;;;;5006041;28;20413;-68
2022/08/15 13:29:35;;;;;;;12.88;8.43;;;;;;;;;;5006568;28;20447;-68
2022/08/15 13:32:03;;;;;;;14.77;9.70;;;;;;;;;;5004843;28;20592;-67
2022/08/15 13:34:29;;;;;;;13.32;7.78;;;;;;;;;;5004624;28;20421;-68
2022/08/15 13:36:55;;;;;;;13.63;9.10;;;;;;;;;;5006089;28;20591;-67
2022/08/15 13:39:26;;;;;;;12.90;8.30;;;;;;;;;;5005017;28;20029;-67
2022/08/15 13:41:52;;;;;;;19.42;9.07;;;;;;;;;;5006372;28;20449;-68
2022/08/15 13:44:17;;;;;;;12.63;8.27;;;;;;;;;;5005053;28;20115;-67
2022/08/15 13:46:42;;;;;;;18.60;9.55;;;;;;;;;;5020373;28;20335;-68
2022/08/15 13:49:11;;;;;;;11.98;9.02;;;;;;;;;;5005646;28;20036;-67
2022/08/15 13:51:45;;;;;;;11.23;8.57;;;;;;;;;;5007621;28;20633;-67
2022/08/15 13:54:12;;;;;;;15.07;8.70;;;;;;;;;;5006090;28;20076;-67
2022/08/15 13:56:37;;;;;;;13.65;9.13;;;;;;;;;;5006152;28;25165;-68
2022/08/15 13:59:04;;;;;;;14.80;8.80;;;;;;;;;;5019244;28;20040;-68
2022/08/15 14:01:30;;;;;;;13.73;8.68;;;;;;;;;;5005993;28;20219;-67
2022/08/15 14:04:00;;;;;;;13.60;8.35;;;;;;;;;;4995846;28;20529;-67
2022/08/15 14:06:25;;;;;;;13.70;9.27;;;;;;;;;;5034572;28;20040;-68
2022/08/15 14:08:52;;;;;;;15.70;8.50;;;;;;;;;;5008823;28;20372;-67
2022/08/15 14:11:17;;;;;;;12.90;8.25;;;;;;;;;;5015094;28;23052;-67
2022/08/15 14:13:43;;;;;;;13.77;8.82;;;;;;;;;;5030256;28;20036;-67
2022/08/15 14:16:10;;;;;;;12.55;8.70;;;;;;;;;;5013814;28;20061;-68
2022/08/15 14:18:35;;;;;;;25.83;18.05;;;;;;;;;;5028640;28;20170;-67
2022/08/15 14:21:04;;;;;;;12.73;8.90;;;;;;;;;;5015852;28;20040;-68
2022/08/15 14:23:29;;;;;;;17.60;8.88;;;;;;;;;;5016483;28;20060;-67
2022/08/15 14:25:54;;;;;;;19.63;10.15;;;;;;;;;;5015103;28;20749;-74
2022/08/15 14:28:20;;;;;;;15.95;10.75;;;;;;;;;;5015824;28;20109;-69
2022/08/15 14:30:45;;;;;;;14.88;9.35;;;;;;;;;;5029244;28;20040;-66
2022/08/15 14:33:10;;;;;;;16.35;10.95;;;;;;;;;;5016598;28;20032;-67
2022/08/15 14:35:35;;;;;;;14.57;11.05;;;;;;;;;;5031338;28;20179;-70
2022/08/15 14:38:01;;;;;;;17.48;11.65;;;;;;;;;;5015474;28;20044;-70
2022/08/15 14:40:30;;;;;;;17.55;11.68;;;;;;;;;;5018155;28;20243;-71
2022/08/15 14:42:56;;;;;;;17.30;10.85;;;;;;;;;;5020329;28;20037;-71
2022/08/15 14:45:22;;;;;;;13.35;9.68;;;;;;;;;;5025122;28;20044;-71
2022/08/15 14:47:49;;;;;;;15.82;9.73;;;;;;;;;;5028689;28;20387;-70
2022/08/15 14:50:16;;;;;;;14.00;9.30;;;;;;;;;;5024887;28;20667;-71